Flight Track Log - Related Links

Times and Time Zones

All times are in EDT time to prevent confusion due to time zone crossing. See the JBU917 flight status page for this flight to view local times or setup timezone preferences in your user account.

Time Position Orientation Groundspeed Altitude Reporting Facility
EDT Latitude Longitude Course Direction KTS MPH feet Rate Location/Type
Wed 10:57:07 PM 40.5997 -73.8078 270° West 148 170 1,900  Level New York Center
Wed 10:57:25 PM 40.5833 -73.8167 202° Southwest 172 198 2,100 1,846 Climbing New York TRACON
Wed 10:58:25 PM 40.5333 -73.8667 217° Southwest 233 268 4,300 1,789 Climbing New York TRACON
Wed 10:59:00 PM 40.3548 -74.2199 232° Southwest  Level FlightAware Approximate
Wed 11:00:00 PM 40.2850 -74.3363 232° Southwest  Level FlightAware Approximate
Wed 11:00:06 PM 40.4456 -73.9592 219° Southwest 263 303 6,900  Level New York Center
Wed 11:01:00 PM 40.2173 -74.4490 229° Southwest  Level FlightAware Approximate
Wed 11:01:06 PM 40.4058 -74.0417 238° Southwest 269 310 9,800  Level New York Center
Wed 11:02:00 PM 40.1833 -74.5812 270° West  Level FlightAware Approximate
Wed 11:02:07 PM 40.3636 -74.1406 241° Southwest 299 344 11,400  Level New York Center
Wed 11:03:05 PM 40.3144 -74.2497 239° Southwest 335 386 13,900 2,542 Climbing New York Center
Wed 11:04:05 PM 40.2653 -74.3586 239° Southwest 348 400 16,400 1,869 Climbing New York Center
Wed 11:05:07 PM 40.2117 -74.4783 240° Southwest 367 422 17,700 1,650 Climbing New York Center
Wed 11:06:05 PM 40.1953 -74.5997 260° West 372 428 19,700 1,831 Climbing New York Center
Wed 11:07:05 PM 40.1864 -74.7431 265° West 385 443 21,300 1,800 Climbing New York Center
Wed 11:08:05 PM 40.1703 -74.9025 263° West 395 455 23,300 1,785 Climbing New York Center
Wed 11:09:06 PM 40.1589 -75.0511 264° West 407 468 24,900 1,513 Climbing New York Center
Wed 11:10:04 PM 40.1469 -75.2025 264° West 413 475 26,300 1,462 Climbing New York Center
Wed 11:11:05 PM 40.1350 -75.3539 264° West 419 482 27,800 1,140 Climbing New York Center
Wed 11:12:05 PM 40.1289 -75.5081 267° West 424 488 28,600 787 Climbing New York Center
Wed 11:13:07 PM 40.1306 -75.6711 271° West 431 496 29,400 1,200 Climbing New York Center
Wed 11:14:05 PM 40.1300 -75.8342 270° West 443 510 31,000 1,220 Climbing New York Center
Wed 11:15:05 PM 40.1272 -75.9942 269° West 443 510 31,800 843 Climbing New York Center
Wed 11:16:06 PM 40.1303 -76.1544 271° West 443 510 32,700 885 Climbing New York Center
Wed 11:17:07 PM 40.1236 -76.2978 267° West 443 510 33,600 1,160 Climbing New York Center
Wed 11:18:05 PM 40.1225 -76.4553 270° West 443 510 35,000 1,008 Climbing New York Center
Wed 11:19:06 PM 40.1231 -76.6128 270° West 438 504 35,600 504 Climbing New York Center
Wed 11:20:04 PM 40.1214 -76.7703 269° West 438 504 36,000 202 Climbing New York Center
Wed 11:21:05 PM 40.1194 -76.9328 269° West 443 510 36,000  Level New York Center
Wed 11:22:05 PM 40.1167 -77.1011 269° West 450 518 36,000  Level New York Center
Wed 11:23:06 PM 40.1158 -77.2694 270° West 460 529 36,000  Level New York Center
Wed 11:24:57 PM 40.1136 -77.5967 270° West 454 522 36,000  Level Cleveland Center
Wed 11:25:57 PM 40.1114 -77.7625 269° West 454 522 36,000  Level Cleveland Center
Wed 11:26:57 PM 40.1111 -77.9253 270° West 461 531 36,000  Level Cleveland Center
Wed 11:27:57 PM 40.1022 -78.0778 266° West 461 531 36,000  Level Cleveland Center
Wed 11:28:57 PM 40.0994 -78.2408 269° West 461 531 36,000  Level Cleveland Center
Wed 11:29:57 PM 40.0964 -78.4064 269° West 461 531 36,000  Level Cleveland Center
Wed 11:30:57 PM 40.0931 -78.5722 269° West 461 531 36,000  Level Cleveland Center
Wed 11:31:57 PM 40.0878 -78.7378 268° West 461 531 36,000  Level Cleveland Center
Wed 11:32:57 PM 40.0839 -78.9033 268° West 461 531 36,000  Level Cleveland Center
Wed 11:33:57 PM 40.0800 -79.0692 268° West 461 531 36,000 200 Level Cleveland Center
Wed 11:34:57 PM 40.0758 -79.2319 268° West 461 531 36,400 750 Climbing Cleveland Center
Wed 11:35:57 PM 40.0717 -79.4083 268° West 455 524 37,500 650 Climbing Cleveland Center
Wed 11:36:57 PM 40.0667 -79.5467 267° West 448 516 37,700 250 Climbing Cleveland Center
Wed 11:37:57 PM 40.0617 -79.7069 268° West 442 509 38,000 150 Climbing Cleveland Center
Wed 11:38:57 PM 40.0544 -79.8697 267° West 442 509 38,000  Level Cleveland Center
Wed 11:39:57 PM 40.0511 -80.0297 268° West 442 509 38,000  Level Cleveland Center
Wed 11:40:57 PM 40.0456 -80.1900 267° West 442 509 38,000  Level Cleveland Center
Wed 11:41:57 PM 40.0397 -80.3497 267° West 442 509 38,000  Level Cleveland Center
Wed 11:42:57 PM 40.0317 -80.5072 266° West 442 509 38,000  Level Cleveland Center
Wed 11:43:57 PM 40.0297 -80.6697 269° West 442 509 38,000  Level Cleveland Center
Wed 11:44:57 PM 40.0419 -80.8272 276° West 442 509 38,000  Level Cleveland Center
Wed 11:45:57 PM 40.0581 -80.9844 278° West 442 509 38,000  Level Cleveland Center
Wed 11:47:29 PM 40.0761 -81.2411 275° West 435 501 38,000  Level Indianapolis Center
Wed 11:48:30 PM 40.0892 -81.3972 276° West 431 496 38,000  Level Indianapolis Center
Wed 11:49:31 PM 40.1033 -81.5544 277° West 432 497 38,000  Level Indianapolis Center
Wed 11:50:32 PM 40.1164 -81.7128 276° West 434 499 38,000  Level Indianapolis Center
Wed 11:51:33 PM 40.1283 -81.8547 276° West 431 496 38,000  Level Indianapolis Center
Wed 11:52:34 PM 40.1411 -82.0092 276° West 426 490 38,000  Level Indianapolis Center
Wed 11:53:35 PM 40.1528 -82.1656 276° West 429 494 38,000  Level Indianapolis Center
Wed 11:54:36 PM 40.1653 -82.3206 276° West 426 490 38,000  Level Indianapolis Center
Wed 11:55:37 PM 40.1781 -82.4764 276° West 428 493 38,000  Level Indianapolis Center
Wed 11:56:38 PM 40.1903 -82.6342 276° West 433 498 38,000  Level Indianapolis Center
Wed 11:57:39 PM 40.2042 -82.8161 276° West 430 495 38,000  Level Indianapolis Center
Wed 11:58:40 PM 40.2147 -82.9714 275° West 429 494 38,000  Level Indianapolis Center
Wed 11:59:41 PM 40.2261 -83.1269 276° West 428 493 38,000  Level Indianapolis Center
Thu 12:00:42 AM 40.2367 -83.2831 275° West 430 495 38,000  Level Indianapolis Center
Thu 12:01:43 AM 40.2483 -83.4394 276° West 431 496 38,000  Level Indianapolis Center
Thu 12:02:44 AM 40.2581 -83.5969 275° West 435 501 38,000  Level Indianapolis Center
Thu 12:03:45 AM 40.2678 -83.7522 275° West 429 494 38,000  Level Indianapolis Center
Thu 12:04:46 AM 40.2783 -83.9081 275° West 428 493 38,000  Level Indianapolis Center
Thu 12:05:46 AM 40.3017 -84.0617 281° West 430 495 38,000  Level Indianapolis Center
Thu 12:06:47 AM 40.3747 -84.1844 308° West 427 491 38,000  Level Indianapolis Center
Thu 12:07:48 AM 40.4444 -84.3136 305° West 432 497 38,000  Level Indianapolis Center
Thu 12:08:49 AM 40.5003 -84.4542 298° West 432 497 38,000  Level Indianapolis Center
Thu 12:09:50 AM 40.5556 -84.5975 297° West 436 502 38,000  Level Indianapolis Center
Thu 12:10:50 AM 40.6117 -84.7381 298° West 430 495 38,000  Level Indianapolis Center
Thu 12:11:31 AM 40.6450 -84.8244 297° West 425 489 38,000  Level Chicago Center
Thu 12:12:31 AM 40.6978 -84.9625 297° West 423 487 38,000  Level Chicago Center
Thu 12:13:32 AM 40.7522 -85.1017 297° West 425 489 38,000  Level Chicago Center
Thu 12:14:32 AM 40.8058 -85.2414 297° West 426 490 38,000  Level Chicago Center
Thu 12:15:33 AM 40.8597 -85.3814 297° West 427 491 38,000  Level Chicago Center
Thu 12:16:34 AM 40.9119 -85.5231 296° West 427 491 38,000  Level Chicago Center
Thu 12:17:34 AM 40.9667 -85.6642 297° West 429 494 38,000 -347 Level Chicago Center
Thu 12:18:35 AM 41.0192 -85.8072 296° West 429 494 37,300 -1,736 Descending Chicago Center
Thu 12:19:35 AM 41.0725 -85.9478 297° West 428 493 34,500 -2,678 Descending Chicago Center
Thu 12:20:36 AM 41.1239 -86.0856 296° West 424 488 31,900 -2,678 Descending Chicago Center
Thu 12:21:36 AM 41.1756 -86.2258 296° West 421 484 29,100 -2,826 Descending Chicago Center
Thu 12:22:37 AM 41.2281 -86.3681 296° West 426 490 26,200 -2,754 Descending Chicago Center
Thu 12:23:38 AM 41.2792 -86.5067 296° West 419 482 23,500 -2,628 Descending Chicago Center
Thu 12:24:38 AM 41.3278 -86.6414 296° West 410 472 20,900 -2,727 Descending Chicago Center
Thu 12:25:39 AM 41.3833 -86.7908 296° West 393 452 18,000 -2,628 Descending Chicago Center
Thu 12:26:39 AM 41.4281 -86.9128 296° West 375 432 15,600 -2,331 Descending Chicago Center
Thu 12:27:40 AM 41.4686 -87.0311 295° West 357 411 13,300 -2,423 Descending Chicago Center
Thu 12:28:23 AM 41.5000 -87.1333 292° West 355 409 11,400 -1,138 Descending Chicago TRACON
Thu 12:29:36 AM 41.5833 -87.2500 314° West 352 405 11,100 -149 Descending Chicago TRACON
Thu 12:30:24 AM 41.6333 -87.3333 309° West 354 407 11,100 -92 Level Chicago TRACON
Thu 12:30:41 AM 41.6364 -87.3483 285° West 352 405 11,000 -77 Descending Chicago Center
Thu 12:31:42 AM 41.6994 -87.4483 310° West 355 409 11,000  Level Chicago Center
Thu 12:32:42 AM 41.7614 -87.5481 310° West 353 406 11,000 -248 Level Chicago Center
Thu 12:33:43 AM 41.8281 -87.6281 318° Northwest 326 375 10,500 -938 Descending Chicago Center
Thu 12:34:18 AM 41.8667 -87.6833 313° West 279 321 9,500 -1,685 Descending Chicago TRACON
Thu 12:35:12 AM 41.9167 -87.7500 315° West 274 315 8,000 -1,143 Descending Chicago TRACON
Thu 12:36:24 AM 42.0000 -87.8333 323° Northwest 265 305 7,100 -476 Descending Chicago TRACON
Thu 12:37:18 AM 42.0500 -87.8833 323° Northwest 263 303 7,000 -100 Descending Chicago TRACON
Thu 12:38:24 AM 42.1000 -87.9167 334° Northwest 219 252 6,900 -650 Descending Chicago TRACON
Thu 12:39:18 AM 42.1500 -87.9667 323° Northwest 223 257 5,700 -1,098 Descending Chicago TRACON
Thu 12:39:46 AM 42.1686 -87.9836 326° Northwest 225 259 5,400 -1,023 Descending Chicago Center
Thu 12:40:46 AM 42.2203 -88.0286 327° Northwest 224 258 4,200 -694 Descending Chicago Center
Thu 12:41:47 AM 42.2078 -88.0939 256° West 211 243 4,000 -99 Descending Chicago Center
Thu 12:42:47 AM 42.1639 -88.1061 192° South 192 221 4,000 -99 Level Chicago Center
Thu 12:43:48 AM 42.1178 -88.0822 159° South 184 212 3,800 -508 Descending Chicago Center
Thu 12:44:45 AM 42.0833 -88.0333 134° Southeast 179 206 3,000 -872 Descending Chicago TRACON
Thu 12:45:45 AM 42.0333 -87.9833 143° Southeast 165 190 2,100 -850 Descending Chicago TRACON
Thu 12:46:45 AM 42.0167 -87.9500 124° Southeast 129 148 1,300 -800 Descending Chicago TRACON
Thu 12:49:00 AM 41.9817 -87.9067 141° Southeast  Level Estimated

Login

Don't have an account? Register now (free) for customized features, flight alerts, and more!